Time;durP1;ratioP1;P1;durP2;ratioP2;P2;SDS_P1;SDS_P2;PMS_P1;PMS_P2;Temp;Humidity;BMP_temperature;BMP_pressure;BME280_temperature;BME280_humidity;BME280_pressure;Samples;Min_cycle;Max_cycle;Signal;HPM_P1;HPM_P2
2022/10/28 00:00:48;;;;;;;16.97;8.07;;;;;;;14.15;80.72;100688.03;5089684;28;20196;-62
2022/10/28 00:03:15;;;;;;;14.30;9.30;;;;;;;14.08;81.00;100693.47;5089616;28;20227;-62
2022/10/28 00:05:42;;;;;;;13.37;8.00;;;;;;;14.15;81.04;100695.00;5090233;28;20195;-64
2022/10/28 00:08:11;;;;;;;16.50;9.07;;;;;;;14.08;81.19;100691.72;5090354;28;20191;-65
2022/10/28 00:10:38;;;;;;;11.50;8.70;;;;;;;14.07;81.93;100691.75;5090186;28;20195;-65
2022/10/28 00:13:04;;;;;;;12.10;7.93;;;;;;;14.04;82.08;100697.88;5090461;28;20204;-64
2022/10/28 00:15:34;;;;;;;12.97;8.50;;;;;;;14.03;82.96;100692.69;5090546;28;20577;-64
2022/10/28 00:18:01;;;;;;;17.27;8.40;;;;;;;14.06;83.02;100695.25;5090687;28;20199;-63
2022/10/28 00:20:30;;;;;;;10.30;8.03;;;;;;;13.94;85.06;100700.75;5089833;28;20195;-61
2022/10/28 00:22:57;;;;;;;19.27;9.20;;;;;;;13.93;86.87;100699.03;5090335;28;20219;-61
2022/10/28 00:25:25;;;;;;;15.97;8.33;;;;;;;13.77;89.05;100688.94;5090000;28;20202;-62
2022/10/28 00:27:52;;;;;;;16.17;9.50;;;;;;;13.62;91.19;100693.66;5089982;28;20195;-62
2022/10/28 00:30:19;;;;;;;13.13;8.47;;;;;;;13.60;91.51;100688.50;5089691;28;20615;-61
2022/10/28 00:32:46;;;;;;;18.73;9.23;;;;;;;13.59;91.70;100688.50;5089766;28;20199;-61
2022/10/28 00:35:13;;;;;;;16.17;9.07;;;;;;;13.50;92.23;100688.72;5089870;28;20589;-65
2022/10/28 00:37:40;;;;;;;15.40;9.97;;;;;;;13.37;92.96;100689.00;5090003;28;20291;-65
2022/10/28 00:40:08;;;;;;;19.00;10.70;;;;;;;13.17;92.73;100675.53;5089805;28;20231;-65
2022/10/28 00:42:37;;;;;;;21.97;11.60;;;;;;;13.05;93.42;100687.03;5089652;28;20223;-64
2022/10/28 00:45:06;;;;;;;28.30;11.10;;;;;;;12.96;94.11;100688.97;5089880;28;20201;-65
2022/10/28 00:47:44;;;;;;;15.40;10.57;;;;;;;13.04;94.19;100690.53;5089527;28;20282;-65
2022/10/28 00:50:28;;;;;;;18.80;11.27;;;;;;;12.98;94.12;100689.78;5089710;28;20297;-66
2022/10/28 00:53:00;;;;;;;20.00;11.20;;;;;;;12.95;94.60;100690.72;5089848;28;20198;-64
2022/10/28 00:55:28;;;;;;;19.27;11.33;;;;;;;13.02;93.84;100688.81;5089700;28;20206;-64
2022/10/28 00:57:57;;;;;;;19.77;10.17;;;;;;;12.96;93.34;100686.34;5090257;28;20194;-65
2022/10/28 01:00:25;;;;;;;19.53;9.97;;;;;;;12.76;92.68;100659.81;5090077;28;20199;-65
2022/10/28 01:02:52;;;;;;;22.80;11.07;;;;;;;12.79;92.74;100684.06;5089792;28;20230;-64
2022/10/28 01:05:22;;;;;;;18.77;10.20;;;;;;;12.66;92.27;100688.66;5089740;28;20202;-65
2022/10/28 01:07:51;;;;;;;37.90;11.67;;;;;;;12.63;92.28;100693.94;5089602;28;20199;-65
2022/10/28 01:10:18;;;;;;;16.00;11.00;;;;;;;12.53;93.46;100687.16;5089716;28;20209;-64
2022/10/28 01:13:04;;;;;;;16.67;11.47;;;;;;;12.51;93.87;100686.34;5090883;28;20569;-65
2022/10/28 01:15:41;;;;;;;21.47;10.70;;;;;;;12.49;94.06;100687.25;5093774;28;20576;-65
2022/10/28 01:18:20;;;;;;;18.47;11.90;;;;;;;12.47;93.82;100684.66;5093453;28;20190;-64
2022/10/28 01:21:21;;;;;;;28.60;12.50;;;;;;;12.49;93.70;100688.09;5093610;28;20206;-64
2022/10/28 01:23:59;;;;;;;25.67;11.93;;;;;;;12.46;93.40;100689.91;5093615;28;20223;-63
2022/10/28 01:26:56;;;;;;;25.67;11.80;;;;;;;12.44;93.12;100686.47;5093272;28;20209;-63
2022/10/28 01:29:49;;;;;;;20.70;11.93;;;;;;;12.42;93.30;100689.06;5093438;28;20604;-63
2022/10/28 01:32:24;;;;;;;17.10;11.93;;;;;;;12.43;93.08;100689.94;5093369;28;20570;-62
2022/10/28 01:35:01;;;;;;;28.03;13.07;;;;;;;12.35;93.12;100692.69;5092945;28;20195;-61
2022/10/28 01:37:36;;;;;;;20.37;12.00;;;;;;;12.33;92.93;100690.09;5093072;28;20198;-61
2022/10/28 01:40:08;;;;;;;21.83;12.37;;;;;;;12.35;93.38;100703.09;5092957;28;20614;-62
2022/10/28 01:42:41;;;;;;;27.80;12.77;;;;;;;12.32;93.51;100693.59;5092860;28;20310;-61
2022/10/28 01:45:14;;;;;;;25.17;12.53;;;;;;;12.31;93.39;100689.28;5092753;28;20248;-61
2022/10/28 01:47:47;;;;;;;22.63;13.50;;;;;;;12.26;93.91;100691.13;5092784;28;20308;-62
2022/10/28 01:50:22;;;;;;;21.17;13.07;;;;;;;12.34;93.48;100691.81;5093041;28;20202;-64
2022/10/28 01:52:53;;;;;;;21.10;12.77;;;;;;;12.17;93.42;100662.63;5093075;28;20674;-63
2022/10/28 01:55:25;;;;;;;23.60;12.77;;;;;;;12.22;94.00;100691.19;5092719;28;20217;-65
2022/10/28 01:57:55;;;;;;;24.27;12.47;;;;;;;12.18;94.21;100687.78;5092819;28;20187;-63
2022/10/28 02:00:22;;;;;;;20.23;13.27;;;;;;;12.15;94.18;100698.25;5092927;28;20195;-63
2022/10/28 02:02:51;;;;;;;22.10;12.77;;;;;;;12.18;94.43;100707.75;5092626;28;20341;-62
2022/10/28 02:05:41;;;;;;;20.97;12.23;;;;;;;12.12;94.75;100698.28;5092215;28;20215;-61
2022/10/28 02:08:24;;;;;;;18.80;12.60;;;;;;;12.12;94.71;100708.69;5092167;28;20206;-64
2022/10/28 02:11:01;;;;;;;22.97;12.10;;;;;;;12.06;95.36;100706.19;5092472;28;20278;-60
2022/10/28 02:13:38;;;;;;;22.47;13.57;;;;;;;11.90;95.69;100691.69;5092449;28;20191;-62
2022/10/28 02:16:13;;;;;;;27.70;12.53;;;;;;;12.04;95.46;100704.50;5092290;28;20205;-61
2022/10/28 02:18:52;;;;;;;18.17;11.47;;;;;;;12.04;95.33;100692.34;5092137;28;20650;-61
2022/10/28 02:21:27;;;;;;;20.27;12.23;;;;;;;12.12;94.87;100705.22;5092669;28;20821;-61
2022/10/28 02:23:59;;;;;;;23.70;13.33;;;;;;;11.90;94.71;100682.16;5091824;28;20715;-61
2022/10/28 02:26:35;;;;;;;22.67;13.30;;;;;;;12.03;94.28;100689.75;5091759;28;20195;-60
2022/10/28 02:29:05;;;;;;;24.23;14.80;;;;;;;12.21;93.32;100708.53;5091884;28;20199;-60
2022/10/28 02:31:35;;;;;;;20.37;13.80;;;;;;;12.18;93.51;100710.34;5092211;28;20629;-60
2022/10/28 02:34:08;;;;;;;28.07;14.63;;;;;;;12.24;93.27;100711.09;5092027;28;20195;-60
2022/10/28 02:36:39;;;;;;;22.70;14.47;;;;;;;12.25;92.99;100712.81;5092370;28;20199;-64
2022/10/28 02:39:07;;;;;;;34.67;14.63;;;;;;;12.26;92.94;100709.34;5091959;28;20235;-61
2022/10/28 02:41:40;;;;;;;29.50;14.10;;;;;;;12.19;93.63;100712.91;5091679;28;20213;-62
2022/10/28 02:44:10;;;;;;;25.93;14.37;;;;;;;12.10;94.34;100712.19;5092009;28;20827;-61
2022/10/28 02:46:42;;;;;;;26.40;15.57;;;;;;;12.09;94.55;100715.69;5091985;28;20226;-61
2022/10/28 02:49:13;;;;;;;28.90;15.10;;;;;;;12.14;94.45;100704.31;5073414;28;20200;-61
2022/10/28 02:51:44;;;;;;;29.67;15.43;;;;;;;12.20;94.00;100714.63;5071252;28;20202;-61
2022/10/28 02:54:14;;;;;;;26.93;15.23;;;;;;;12.05;94.44;100703.63;5071694;28;20195;-64
2022/10/28 02:56:48;;;;;;;24.97;14.27;;;;;;;12.04;94.92;100720.97;5071713;28;20196;-64
2022/10/28 02:59:15;;;;;;;30.67;15.27;;;;;;;11.88;95.63;100716.88;5071468;28;20203;-61
2022/10/28 03:01:42;;;;;;;25.83;13.53;;;;;;;11.88;96.15;100722.94;5071100;28;20710;-64
2022/10/28 03:04:10;;;;;;;26.43;14.30;;;;;;;11.84;96.46;100726.50;5071029;28;20242;-61
2022/10/28 03:06:37;;;;;;;27.90;14.17;;;;;;;11.74;97.10;100730.03;5070198;28;20220;-61
2022/10/28 03:09:04;;;;;;;20.50;13.97;;;;;;;11.65;97.48;100720.63;5070481;28;20235;-63
2022/10/28 03:11:31;;;;;;;27.87;13.47;;;;;;;11.55;97.98;100732.03;5070808;28;20227;-61
2022/10/28 03:13:58;;;;;;;30.93;12.93;;;;;;;11.54;97.41;100738.13;5070712;28;20220;-61
2022/10/28 03:16:25;;;;;;;26.50;12.60;;;;;;;11.55;97.09;100738.97;5070801;28;20220;-61
2022/10/28 03:18:52;;;;;;;19.03;11.83;;;;;;;11.53;97.04;100731.19;5070949;28;20284;-60
2022/10/28 03:21:20;;;;;;;20.43;11.83;;;;;;;11.55;96.14;100731.19;5070057;28;20219;-60
2022/10/28 03:23:47;;;;;;;25.03;10.80;;;;;;;11.51;96.72;100740.75;5070430;28;20734;-63
2022/10/28 03:26:14;;;;;;;17.10;10.60;;;;;;;11.46;96.39;100739.97;5070521;28;20226;-63
2022/10/28 03:28:41;;;;;;;20.30;10.97;;;;;;;11.45;96.66;100735.66;5070262;28;20219;-63
2022/10/28 03:31:08;;;;;;;15.73;9.97;;;;;;;11.51;96.60;100745.94;5069676;28;20211;-60
2022/10/28 03:33:35;;;;;;;17.57;9.40;;;;;;;11.39;96.36;100737.47;5085535;28;20206;-61
2022/10/28 03:36:02;;;;;;;21.50;9.40;;;;;;;11.18;97.51;100735.97;5090247;28;20203;-60
2022/10/28 03:38:30;;;;;;;13.27;8.57;;;;;;;11.09;98.09;100738.69;5090365;28;20269;-63
2022/10/28 03:40:57;;;;;;;11.43;8.03;;;;;;;10.93;98.80;100740.63;5090551;28;20205;-59
2022/10/28 03:43:24;;;;;;;13.50;8.77;;;;;;;10.92;99.00;100738.88;5083725;28;20310;-60
2022/10/28 03:45:51;;;;;;;15.53;8.93;;;;;;;10.99;99.23;100750.06;5080773;28;20196;-60
2022/10/28 03:48:18;;;;;;;13.33;7.63;;;;;;;10.96;99.72;100745.75;5077779;28;20593;-61
2022/10/28 03:50:45;;;;;;;12.20;8.33;;;;;;;10.98;99.81;100745.75;5078180;28;20202;-61
2022/10/28 03:53:12;;;;;;;16.87;9.07;;;;;;;11.00;100.00;100750.06;5079502;28;20190;-60
2022/10/28 03:55:40;;;;;;;11.67;8.30;;;;;;;10.98;100.00;100740.53;5080082;28;20199;-60
2022/10/28 03:58:07;;;;;;;17.90;8.47;;;;;;;10.90;100.00;100709.47;5078504;28;20280;-61
2022/10/28 04:00:34;;;;;;;13.93;8.33;;;;;;;10.97;100.00;100739.69;5079539;28;20199;-62
2022/10/28 04:03:01;;;;;;;16.67;8.97;;;;;;;10.93;100.00;100742.34;5078357;28;20192;-62
2022/10/28 04:05:28;;;;;;;13.73;9.47;;;;;;;10.88;100.00;100734.59;5075162;28;20302;-62
2022/10/28 04:07:54;;;;;;;18.87;9.70;;;;;;;10.87;100.00;100741.53;5073781;28;20200;-59
2022/10/28 04:10:21;;;;;;;16.97;9.67;;;;;;;10.87;100.00;100738.94;5079389;28;20202;-60
2022/10/28 04:12:50;;;;;;;19.87;10.33;;;;;;;10.87;100.00;100732.88;5080633;28;20225;-60
2022/10/28 04:15:17;;;;;;;17.53;10.10;;;;;;;10.82;100.00;100726.88;5072125;28;20192;-62
2022/10/28 04:17:43;;;;;;;21.37;10.93;;;;;;;10.95;100.00;100740.59;5070032;28;20245;-60
2022/10/28 04:20:11;;;;;;;27.50;10.47;;;;;;;10.96;100.00;100737.09;5070125;28;20202;-62
2022/10/28 04:22:38;;;;;;;23.13;11.63;;;;;;;10.90;100.00;100738.91;5069994;28;20586;-63
2022/10/28 04:25:05;;;;;;;22.20;11.33;;;;;;;10.89;100.00;100749.31;5074369;28;20219;-57
2022/10/28 04:27:32;;;;;;;18.47;11.50;;;;;;;11.01;100.00;100750.91;5089663;28;20667;-60
2022/10/28 04:30:01;;;;;;;20.43;11.07;;;;;;;11.10;100.00;100745.59;5089638;28;20294;-58
2022/10/28 04:32:28;;;;;;;47.10;15.40;;;;;;;11.14;100.00;100748.16;5090056;28;20572;-58
2022/10/28 04:34:55;;;;;;;18.83;10.03;;;;;;;11.20;100.00;100747.22;5089929;28;20586;-58
2022/10/28 04:37:22;;;;;;;16.37;10.20;;;;;;;11.25;100.00;100745.44;5089178;28;20202;-65
2022/10/28 04:39:49;;;;;;;15.93;9.77;;;;;;;11.25;100.00;100735.03;5089492;28;20598;-62
2022/10/28 04:42:16;;;;;;;16.73;10.63;;;;;;;11.18;100.00;100735.97;5089491;28;20195;-63
2022/10/28 04:44:43;;;;;;;18.20;11.07;;;;;;;11.19;100.00;100740.28;5089925;28;20678;-65
2022/10/28 04:47:11;;;;;;;14.83;10.63;;;;;;;11.23;100.00;100739.41;5089304;28;20280;-63
2022/10/28 04:49:38;;;;;;;18.17;10.60;;;;;;;11.26;100.00;100739.38;5089477;28;20195;-63
2022/10/28 04:52:05;;;;;;;14.07;10.43;;;;;;;11.25;100.00;100740.25;5089691;28;20582;-63
2022/10/28 04:54:32;;;;;;;17.07;11.07;;;;;;;11.12;100.00;100713.53;5089573;28;20218;-65
2022/10/28 04:56:59;;;;;;;14.03;10.23;;;;;;;11.17;100.00;100734.28;5089376;28;20228;-63
2022/10/28 04:59:26;;;;;;;19.30;10.80;;;;;;;11.24;100.00;100739.38;5089812;28;20259;-62
2022/10/28 05:01:53;;;;;;;14.00;10.73;;;;;;;11.25;100.00;100740.25;5089616;28;20221;-62
2022/10/28 05:04:22;;;;;;;13.83;11.23;;;;;;;11.34;100.00;100747.91;5089376;28;20219;-63
2022/10/28 05:06:48;;;;;;;21.37;11.07;;;;;;;11.41;100.00;100740.91;5089500;28;20199;-60
2022/10/28 05:09:15;;;;;;;21.83;10.87;;;;;;;11.47;99.78;100746.91;5089585;28;20201;-61
2022/10/28 05:11:42;;;;;;;15.63;10.17;;;;;;;11.51;98.95;100743.34;5089548;28;20199;-65
2022/10/28 05:14:09;;;;;;;16.97;9.57;;;;;;;11.49;98.50;100750.34;5089949;28;20198;-65
2022/10/28 05:16:36;;;;;;;13.20;9.13;;;;;;;11.56;98.18;100757.16;5089852;28;20226;-63
2022/10/28 05:19:03;;;;;;;14.03;10.30;;;;;;;11.62;97.97;100762.28;5089623;28;20195;-63
2022/10/28 05:21:31;;;;;;;22.10;10.37;;;;;;;11.70;97.26;100761.34;5089719;28;20201;-63
2022/10/28 05:23:58;;;;;;;15.07;10.00;;;;;;;11.58;96.93;100742.41;5089352;28;20234;-65
2022/10/28 05:26:25;;;;;;;25.07;11.00;;;;;;;11.76;96.42;100772.53;5089376;28;20231;-65
2022/10/28 05:28:52;;;;;;;19.70;11.63;;;;;;;11.80;96.55;100766.41;5089036;28;20613;-65
2022/10/28 05:31:19;;;;;;;16.97;10.40;;;;;;;11.90;95.85;100775.81;5089509;28;20199;-66
2022/10/28 05:33:46;;;;;;;16.67;9.60;;;;;;;12.09;94.72;100772.94;5089550;28;20203;-64
2022/10/28 05:36:13;;;;;;;18.77;8.73;;;;;;;12.20;93.42;100778.84;5089237;28;20199;-66
2022/10/28 05:38:44;;;;;;;12.07;8.43;;;;;;;12.38;92.35;100788.13;5089143;28;20231;-67
2022/10/28 05:41:11;;;;;;;19.03;9.33;;;;;;;12.61;90.79;100789.47;5089575;28;20227;-65
2022/10/28 05:43:38;;;;;;;15.83;9.57;;;;;;;13.79;85.93;100793.31;5089057;28;20205;-61
2022/10/28 05:46:05;;;;;;;19.97;8.67;;;;;;;15.72;74.16;100806.72;5089066;28;20198;-63
2022/10/28 05:48:32;;;;;;;16.37;8.43;;;;;;;17.58;63.98;100805.81;5073244;28;20224;-63
2022/10/28 05:50:59;;;;;;;19.77;8.60;;;;;;;19.30;55.87;100818.09;5068500;28;20223;-63
2022/10/28 05:53:25;;;;;;;29.00;9.40;;;;;;;20.82;50.23;100812.72;5067894;28;20302;-63
2022/10/28 05:55:54;;;;;;;13.55;8.25;;;;;;;22.15;46.48;100810.03;5068443;28;20224;-67
2022/10/28 05:58:21;;;;;;;11.75;8.10;;;;;;;23.32;42.91;100819.03;5088438;28;20227;-67
2022/10/28 06:00:48;;;;;;;13.02;7.63;;;;;;;24.49;39.87;100821.38;5091152;28;20237;-62
2022/10/28 06:03:14;;;;;;;9.65;7.75;;;;;;;25.09;37.98;100829.72;5092200;28;20225;-63
2022/10/28 06:05:43;;;;;;;22.20;7.35;;;;;;;25.49;36.50;100832.28;5092008;28;20235;-62
2022/10/28 06:08:11;;;;;;;29.90;7.50;;;;;;;25.85;35.75;100832.38;5091687;28;20302;-66
2022/10/28 06:10:38;;;;;;;13.30;7.40;;;;;;;25.54;35.41;100832.81;5072664;28;20203;-62
2022/10/28 06:13:07;;;;;;;12.38;7.50;;;;;;;24.57;36.96;100832.34;5070647;28;20191;-66
2022/10/28 06:15:34;;;;;;;10.73;7.32;;;;;;;23.27;39.41;100834.34;5071941;28;20200;-66
2022/10/28 06:18:01;;;;;;;9.48;7.78;;;;;;;21.66;42.89;100836.50;5071914;28;20643;-62
2022/10/28 06:20:28;;;;;;;11.30;7.47;;;;;;;20.37;46.27;100829.03;5071323;28;20281;-62
2022/10/28 06:22:56;;;;;;;13.60;7.38;;;;;;;19.42;48.92;100828.09;5071510;28;20219;-63
2022/10/28 06:25:24;;;;;;;15.23;8.00;;;;;;;18.50;52.25;100822.38;5079460;28;20234;-65
2022/10/28 06:27:54;;;;;;;19.90;8.88;;;;;;;17.89;54.54;100819.53;5092209;28;20203;-65
2022/10/28 06:30:23;;;;;;;15.15;8.35;;;;;;;17.48;56.58;100828.06;5092175;28;20195;-65
2022/10/28 06:32:50;;;;;;;19.75;8.95;;;;;;;17.12;58.28;100824.97;5092148;28;20286;-65
2022/10/28 06:35:17;;;;;;;16.52;8.73;;;;;;;16.96;59.20;100825.50;5092192;28;20577;-65
2022/10/28 06:37:44;;;;;;;17.37;9.83;;;;;;;16.78;60.19;100823.50;5091693;28;20248;-65
2022/10/28 06:40:11;;;;;;;15.50;9.68;;;;;;;16.70;61.01;100828.97;5070397;28;20254;-65
2022/10/28 06:42:38;;;;;;;14.67;8.53;;;;;;;16.69;61.45;100816.81;5070783;28;20612;-63
2022/10/28 06:45:06;;;;;;;16.07;8.73;;;;;;;16.63;61.92;100821.38;5071095;28;20314;-65
2022/10/28 06:47:35;;;;;;;17.23;8.37;;;;;;;16.49;62.70;100820.91;5070312;28;20196;-62
2022/10/28 06:50:01;;;;;;;15.87;8.47;;;;;;;16.47;62.81;100821.00;5071302;28;20196;-62
2022/10/28 06:52:28;;;;;;;10.57;8.90;;;;;;;16.34;62.92;100799.56;5071289;28;20250;-62
2022/10/28 06:54:55;;;;;;;13.47;8.40;;;;;;;16.44;63.32;100815.84;5071249;28;20675;-62
2022/10/28 06:57:22;;;;;;;13.43;8.37;;;;;;;16.40;63.64;100808.97;5071276;28;20199;-62
2022/10/28 06:59:49;;;;;;;11.17;8.20;;;;;;;16.64;62.86;100812.59;5071229;28;20288;-62
2022/10/28 07:02:16;;;;;;;15.40;8.40;;;;;;;16.67;62.25;100816.00;5070955;28;20200;-62
2022/10/28 07:04:45;;;;;;;11.53;8.83;;;;;;;16.79;62.35;100819.13;5071241;28;20230;-62
2022/10/28 07:07:11;;;;;;;12.27;8.20;;;;;;;16.67;62.96;100820.38;5073716;28;20191;-62
2022/10/28 07:09:38;;;;;;;17.53;8.80;;;;;;;16.63;63.14;100819.63;5090285;28;20281;-63
2022/10/28 07:12:06;;;;;;;17.63;8.43;;;;;;;16.65;63.31;100814.31;5090983;28;20195;-65
2022/10/28 07:14:34;;;;;;;16.67;7.40;;;;;;;16.58;63.74;100803.16;5091087;28;20195;-65
2022/10/28 07:17:01;;;;;;;17.83;8.03;;;;;;;16.70;63.02;100813.25;5070594;28;20204;-65
2022/10/28 07:19:28;;;;;;;12.77;7.60;;;;;;;16.74;63.15;100807.91;5077854;28;20195;-61
2022/10/28 07:21:57;;;;;;;10.90;7.07;;;;;;;16.77;63.01;100819.16;5088754;28;20198;-62
2022/10/28 07:24:24;;;;;;;14.13;8.00;;;;;;;16.66;63.96;100810.78;5090436;28;20215;-62
2022/10/28 07:26:51;;;;;;;12.40;8.33;;;;;;;16.59;65.02;100809.25;5091022;28;20195;-65
2022/10/28 07:29:18;;;;;;;10.30;7.33;;;;;;;16.85;64.30;100806.63;5090962;28;20200;-66
2022/10/28 07:31:44;;;;;;;20.17;8.30;;;;;;;16.86;63.08;100810.13;5090958;28;20195;-65
2022/10/28 07:34:11;;;;;;;18.00;8.67;;;;;;;16.91;62.96;100810.84;5091016;28;20298;-63
2022/10/28 07:36:38;;;;;;;16.50;9.17;;;;;;;16.91;63.08;100810.84;5090909;28;20291;-63
2022/10/28 07:39:07;;;;;;;14.90;10.27;;;;;;;16.93;63.40;100820.34;5090593;28;20234;-64
2022/10/28 07:41:33;;;;;;;16.00;10.20;;;;;;;16.85;63.51;100814.50;5090599;28;20203;-63
2022/10/28 07:44:00;;;;;;;22.33;10.77;;;;;;;16.79;64.56;100801.63;5090516;28;20287;-63
2022/10/28 07:46:27;;;;;;;20.80;10.80;;;;;;;16.74;64.28;100808.78;5090664;28;20281;-64
2022/10/28 07:48:54;;;;;;;15.77;11.07;;;;;;;16.75;67.46;100817.50;5090721;28;20678;-64
2022/10/28 07:51:21;;;;;;;18.60;10.77;;;;;;;16.70;68.10;100815.88;5090390;28;20191;-60
2022/10/28 07:53:48;;;;;;;20.33;11.00;;;;;;;16.68;66.98;100815.09;5090243;28;20282;-61
2022/10/28 07:56:16;;;;;;;25.07;11.23;;;;;;;16.63;66.50;100810.88;5090473;28;20195;-61
2022/10/28 07:58:44;;;;;;;23.20;10.67;;;;;;;16.51;65.84;100785.03;5090147;28;20191;-65
2022/10/28 08:01:14;;;;;;;25.97;9.50;;;;;;;16.57;66.56;100811.06;5090480;28;20221;-65
2022/10/28 08:03:41;;;;;;;19.87;8.77;;;;;;;16.38;68.54;100795.06;5090298;28;20290;-65
2022/10/28 08:06:09;;;;;;;27.07;9.80;;;;;;;16.65;69.57;100804.69;5090195;28;20744;-66
2022/10/28 08:08:37;;;;;;;21.07;9.73;;;;;;;16.56;67.71;100784.00;5090152;28;20195;-65
2022/10/28 08:11:11;;;;;;;21.73;9.77;;;;;;;16.77;68.40;100803.44;5090048;28;20197;-66
2022/10/28 08:13:39;;;;;;;15.67;8.10;;;;;;;16.80;65.91;100797.22;5090247;28;20743;-65
2022/10/28 08:16:07;;;;;;;12.17;8.13;;;;;;;16.86;66.11;100802.25;5090194;28;20195;-66
2022/10/28 08:18:34;;;;;;;18.13;9.27;;;;;;;16.86;69.32;100797.00;5089976;28;20288;-65
2022/10/28 08:21:01;;;;;;;20.33;10.30;;;;;;;16.97;65.74;100795.72;5089968;28;20195;-65
2022/10/28 08:23:28;;;;;;;14.43;7.60;;;;;;;17.05;66.39;100798.06;5089329;28;20191;-65
2022/10/28 08:25:56;;;;;;;13.63;7.40;;;;;;;17.05;65.20;100788.44;5090167;28;20250;-66
2022/10/28 08:28:23;;;;;;;12.83;6.73;;;;;;;17.11;64.59;100792.63;5088906;28;20195;-65
2022/10/28 08:30:52;;;;;;;9.93;5.67;;;;;;;17.08;63.19;100771.75;5089038;28;20202;-65
2022/10/28 08:33:19;;;;;;;9.50;6.10;;;;;;;17.16;62.58;100781.94;5089703;28;20234;-64
2022/10/28 08:35:50;;;;;;;13.73;5.87;;;;;;;17.19;65.51;100779.22;5088710;28;20202;-64
2022/10/28 08:38:18;;;;;;;9.20;6.40;;;;;;;17.12;63.75;100759.38;5089580;28;20616;-65
2022/10/28 08:40:57;;;;;;;12.93;6.80;;;;;;;17.20;63.03;100781.81;5089784;28;20286;-65
2022/10/28 08:43:33;;;;;;;14.67;5.80;;;;;;;17.19;61.75;100779.22;5089886;28;20282;-65
2022/10/28 08:46:11;;;;;;;10.30;4.83;;;;;;;17.22;62.55;100777.34;5089744;28;20229;-64
2022/10/28 08:48:40;;;;;;;11.90;5.67;;;;;;;17.30;63.95;100771.81;5089620;28;21164;-65
2022/10/28 08:51:18;;;;;;;6.30;5.13;;;;;;;17.33;62.34;100774.34;5089512;28;20199;-62
2022/10/28 08:53:51;;;;;;;9.83;5.60;;;;;;;17.33;61.57;100767.31;5089617;28;20191;-65
2022/10/28 08:56:28;;;;;;;13.20;5.63;;;;;;;17.37;62.25;100757.59;5090122;28;20191;-66
2022/10/28 08:59:00;;;;;;;5.87;5.20;;;;;;;17.47;64.67;100773.84;5089464;28;20205;-64
2022/10/28 09:01:41;;;;;;;12.57;5.17;;;;;;;17.51;61.28;100776.28;5089817;28;20195;-64
2022/10/28 09:04:19;;;;;;;8.27;5.57;;;;;;;17.59;61.38;100774.25;5089807;28;20199;-67
2022/10/28 09:06:46;;;;;;;11.87;5.40;;;;;;;17.63;61.27;100764.50;5089451;28;20225;-67
2022/10/28 09:09:18;;;;;;;16.50;6.33;;;;;;;17.69;60.86;100764.28;5089414;28;20576;-67
2022/10/28 09:12:02;;;;;;;8.53;5.50;;;;;;;17.80;60.34;100762.09;5089785;28;20191;-66
2022/10/28 09:14:43;;;;;;;6.87;6.07;;;;;;;17.84;60.25;100758.41;5089495;28;20211;-64
2022/10/28 09:17:17;;;;;;;13.00;5.60;;;;;;;17.91;59.33;100762.53;5089379;28;20286;-66
2022/10/28 09:19:48;;;;;;;6.77;5.50;;;;;;;17.98;59.42;100748.22;5089203;28;20200;-66
2022/10/28 09:22:24;;;;;;;8.65;5.43;;;;;;;18.03;59.27;100741.03;5089403;28;20206;-69
2022/10/28 09:24:54;;;;;;;7.30;5.70;;;;;;;18.03;59.40;100743.66;5089257;28;20199;-63
2022/10/28 09:27:44;;;;;;;7.50;5.53;;;;;;;18.14;59.35;100745.88;5089428;28;20199;-63
2022/10/28 09:30:26;;;;;;;10.63;5.97;;;;;;;18.17;59.80;100745.75;5089133;28;20199;-65
2022/10/28 09:33:05;;;;;;;6.88;5.32;;;;;;;18.23;58.74;100739.38;5089320;28;20318;-64
2022/10/28 09:35:37;;;;;;;7.90;5.47;;;;;;;18.28;58.22;100738.28;5093144;28;20274;-65
2022/10/28 09:38:16;;;;;;;10.90;5.40;;;;;;;18.32;58.28;100734.59;5093015;28;20209;-64
2022/10/28 09:40:50;;;;;;;7.82;5.40;;;;;;;18.31;57.99;100732.88;5093246;28;20587;-61
2022/10/28 09:43:23;;;;;;;6.40;5.88;;;;;;;18.31;58.56;100725.00;5093168;28;20722;-65
2022/10/28 09:45:53;;;;;;;7.97;5.75;;;;;;;18.35;58.26;100715.22;5093088;28;20280;-66
2022/10/28 09:48:25;;;;;;;25.60;13.98;;;;;;;18.26;58.53;100695.44;5085187;28;20207;-65
2022/10/28 09:50:54;;;;;;;21.65;14.35;;;;;;;18.49;58.27;100718.13;5072342;28;20202;-66
2022/10/28 09:53:31;;;;;;;7.82;6.70;;;;;;;18.57;58.42;100708.13;5085821;28;20730;-62
2022/10/28 09:55:58;;;;;;;24.33;16.30;;;;;;;18.68;58.52;100707.69;5092877;28;20619;-62
2022/10/28 09:58:25;;;;;;;11.73;6.43;;;;;;;18.68;57.85;100711.19;5092627;28;20199;-63
2022/10/28 10:00:52;;;;;;;12.68;9.43;;;;;;;18.61;58.41;100693.97;5093011;28;20205;-64
2022/10/28 10:03:19;;;;;;;14.07;6.75;;;;;;;18.64;58.30;100693.81;5092395;28;20585;-63
2022/10/28 10:05:52;;;;;;;8.65;6.07;;;;;;;18.70;57.75;100698.81;5092460;28;20223;-63
2022/10/28 10:08:20;;;;;;;9.98;5.65;;;;;;;18.79;58.85;100689.66;5092507;28;20290;-63
2022/10/28 10:10:50;;;;;;;10.13;8.45;;;;;;;18.86;58.21;100694.59;5092527;28;20196;-67
2022/10/28 10:13:21;;;;;;;10.00;6.72;;;;;;;18.93;58.25;100691.69;5092409;28;20617;-66
2022/10/28 10:15:53;;;;;;;7.93;5.93;;;;;;;19.01;57.29;100677.28;5092290;28;20685;-66
2022/10/28 10:18:23;;;;;;;5.65;5.22;;;;;;;19.13;59.34;100681.97;5092266;28;20199;-63
2022/10/28 10:20:54;;;;;;;6.22;5.20;;;;;;;19.22;57.82;100688.59;5092231;28;20200;-67
2022/10/28 10:23:29;;;;;;;6.30;5.72;;;;;;;19.18;56.30;100681.78;5092399;28;20195;-67
2022/10/28 10:26:01;;;;;;;16.67;5.95;;;;;;;19.19;56.94;100665.91;5092016;28;20219;-67
2022/10/28 10:28:29;;;;;;;9.40;5.43;;;;;;;19.27;57.27;100673.47;5091971;28;20203;-64
2022/10/28 10:30:58;;;;;;;8.80;5.57;;;;;;;19.49;57.92;100674.19;5091963;28;20202;-63
2022/10/28 10:33:28;;;;;;;13.15;7.07;;;;;;;19.54;55.62;100666.91;5091958;28;20199;-63
2022/10/28 10:36:01;;;;;;;12.60;6.45;;;;;;;19.57;53.92;100666.78;5091982;28;20206;-66
2022/10/28 10:38:29;;;;;;;6.20;5.60;;;;;;;19.58;53.41;100667.63;5091893;28;20231;-66
2022/10/28 10:40:56;;;;;;;9.50;5.03;;;;;;;19.66;52.13;100664.63;5091941;28;20199;-66
2022/10/28 10:43:31;;;;;;;4.82;4.38;;;;;;;19.63;52.61;100660.38;5092029;28;20203;-66
2022/10/28 10:46:03;;;;;;;5.28;4.45;;;;;;;19.71;51.83;100658.22;5090960;28;20215;-64
2022/10/28 10:48:32;;;;;;;5.47;4.90;;;;;;;19.60;51.01;100633.31;5091690;28;20278;-64
2022/10/28 10:51:06;;;;;;;6.32;4.10;;;;;;;19.60;50.70;100644.72;5091753;28;20199;-66
2022/10/28 10:53:34;;;;;;;6.90;5.82;;;;;;;19.63;50.05;100652.47;5091667;28;20192;-67
2022/10/28 10:56:03;;;;;;;4.25;3.88;;;;;;;19.72;50.01;100638.84;5091610;28;20231;-63
2022/10/28 10:58:34;;;;;;;8.13;3.80;;;;;;;19.87;48.19;100642.50;5091949;28;20195;-66
2022/10/28 11:01:02;;;;;;;7.18;4.00;;;;;;;19.82;48.48;100644.53;5091369;28;20290;-63
2022/10/28 11:03:33;;;;;;;4.82;3.67;;;;;;;19.87;48.21;100643.34;5091389;28;20206;-62
2022/10/28 11:06:04;;;;;;;5.03;4.20;;;;;;;19.85;47.58;100634.69;5091265;28;20234;-62
2022/10/28 11:08:40;;;;;;;3.85;3.55;;;;;;;19.78;47.49;100601.66;5091342;28;20195;-62
2022/10/28 11:11:11;;;;;;;6.30;4.15;;;;;;;19.96;47.34;100633.31;5091405;28;20198;-63
2022/10/28 11:13:39;;;;;;;7.43;3.75;;;;;;;20.04;47.33;100634.63;5091420;28;20199;-61
2022/10/28 11:16:16;;;;;;;5.55;4.55;;;;;;;20.22;48.14;100635.47;5091253;28;20195;-64
2022/10/28 11:18:45;;;;;;;4.32;3.88;;;;;;;20.13;47.21;100638.59;5091610;28;20226;-62
2022/10/28 11:21:41;;;;;;;10.98;4.13;;;;;;;20.24;46.39;100634.47;5091164;28;20282;-63
2022/10/28 11:24:29;;;;;;;16.30;4.28;;;;;;;20.23;46.53;100632.75;5091079;28;20597;-64
2022/10/28 11:27:05;;;;;;;21.38;4.68;;;;;;;20.16;45.92;100617.34;5090835;28;20225;-64